Hlavní strana
METAR-TAF:

METAR-TAF

Letiště :

Tartu, Estonsko

zeměpisná šířka: 58-18N, zeměpisná délka: 026-44E, výška: 59 m

Aktuální stav počasí

Zpráva byla vytvořena před 17 minutami, v 10:50 UTC
Jihozápadní vítr 12 kt
Teplota 11°C
Vlhkost vzduchu 94%
Tlak 1013 hPa
Viditelnost: 4000 m
Zataženo ve výšce 500 ft
kouřmo

METAR: EETU 221050Z 22012KT 4000 BR OVC005 11/10 Q1013

Čas: 14:07 (11:07 UTC)

Předpověď počasí

Zpráva byla vytvořena před 15 hodinami a 7 minutami, v 20:00 UTC
Předpověď platná od 21 v 21 UTC do 22 v 03 UTC
Západojihozápadní vítr 6 kt
Viditelnost 10 km a více
Zataženo ve výšce 2000 ft
Pravděpodobnost 40% :
Dočasný
od 21 v 21 UTC do 22 v 03 UTC
Oblačno až skoro zataženo ve výšce 1000 ft
Zataženo ve výšce 1500 ft

TAF: EETU 212000Z 2121/2203 24006KT 9999 OVC020 PROB40 TEMPO 2121/2203 BKN010 OVC015

Stav a předpovědi počasí z více než 4 000 letišť (zprávy METAR a TAF).

Červené a žluté tečky na mapě představují dostupné meteorologické stanice.

Když kurzor umístíte na tečku, zobrazí se název stanice.

Pak kliknutím zobrazíte stav a předpověď počasí.

Chcete-li změnit mapu, kliknutím na zelené tlačítko se znaménkem +mapu přiblížíte, kliknutím na zelené tlačítko se znaménkem – mapu oddálíte a kliknutím na zelené šipky přejdete na sousední mapy.


METAR-TAF: